sensor_id;sensor_type;location;lat;lon;timestamp;pressure;altitude;pressure_sealevel;temperature;humidity
43125;BME280;49182;50.788;7.318;2024-03-22T00:04:30;101553.81;;;8.38;100.00
43125;BME280;49182;50.788;7.318;2024-03-22T00:09:31;101543.69;;;8.32;100.00
43125;BME280;49182;50.788;7.318;2024-03-22T00:14:33;101536.88;;;8.28;100.00
43125;BME280;49182;50.788;7.318;2024-03-22T00:19:34;101536.22;;;8.25;100.00
43125;BME280;49182;50.788;7.318;2024-03-22T00:24:35;101526.09;;;8.19;100.00
43125;BME280;49182;50.788;7.318;2024-03-22T00:29:38;101434.50;;;7.70;100.00
43125;BME280;49182;50.788;7.318;2024-03-22T00:34:39;101485.91;;;8.02;100.00
43125;BME280;49182;50.788;7.318;2024-03-22T00:39:39;101518.75;;;8.24;100.00
43125;BME280;49182;50.788;7.318;2024-03-22T00:44:41;101508.22;;;8.24;100.00
43125;BME280;49182;50.788;7.318;2024-03-22T00:49:42;101512.72;;;8.22;100.00
43125;BME280;49182;50.788;7.318;2024-03-22T00:54:43;101483.00;;;8.07;100.00
43125;BME280;49182;50.788;7.318;2024-03-22T00:59:45;101491.13;;;8.17;100.00
43125;BME280;49182;50.788;7.318;2024-03-22T01:04:46;101479.78;;;8.16;100.00
43125;BME280;49182;50.788;7.318;2024-03-22T01:09:46;101485.34;;;8.11;100.00
43125;BME280;49182;50.788;7.318;2024-03-22T01:14:49;101484.69;;;8.08;100.00
43125;BME280;49182;50.788;7.318;2024-03-22T01:19:50;101479.25;;;7.97;100.00
43125;BME280;49182;50.788;7.318;2024-03-22T01:24:51;101471.00;;;7.89;100.00
43125;BME280;49182;50.788;7.318;2024-03-22T01:29:53;101461.59;;;7.85;100.00
43125;BME280;49182;50.788;7.318;2024-03-22T01:34:54;101453.25;;;7.78;100.00
43125;BME280;49182;50.788;7.318;2024-03-22T01:39:55;101451.69;;;7.76;100.00
43125;BME280;49182;50.788;7.318;2024-03-22T01:44:57;101450.38;;;7.68;100.00
43125;BME280;49182;50.788;7.318;2024-03-22T01:49:58;101448.75;;;7.66;100.00
43125;BME280;49182;50.788;7.318;2024-03-22T01:54:59;101438.38;;;7.64;100.00
43125;BME280;49182;50.788;7.318;2024-03-22T02:00:01;101372.03;;;7.32;100.00
43125;BME280;49182;50.788;7.318;2024-03-22T02:05:11;101426.16;;;7.63;100.00
43125;BME280;49182;50.788;7.318;2024-03-22T02:10:12;101302.47;;;6.97;100.00
43125;BME280;49182;50.788;7.318;2024-03-22T02:15:15;101412.72;;;7.68;100.00
43125;BME280;49182;50.788;7.318;2024-03-22T02:20:15;101392.00;;;7.63;100.00
43125;BME280;49182;50.788;7.318;2024-03-22T02:25:17;101386.66;;;7.65;100.00
43125;BME280;49182;50.788;7.318;2024-03-22T02:30:18;101378.09;;;7.61;100.00
43125;BME280;49182;50.788;7.318;2024-03-22T02:35:19;101374.84;;;7.58;100.00
43125;BME280;49182;50.788;7.318;2024-03-22T02:40:21;101366.75;;;7.61;100.00
43125;BME280;49182;50.788;7.318;2024-03-22T02:45:22;101348.09;;;7.51;100.00
43125;BME280;49182;50.788;7.318;2024-03-22T02:50:23;101367.41;;;7.64;100.00
43125;BME280;49182;50.788;7.318;2024-03-22T02:55:25;101360.47;;;7.63;100.00
43125;BME280;49182;50.788;7.318;2024-03-22T03:00:26;101352.28;;;7.68;100.00
43125;BME280;49182;50.788;7.318;2024-03-22T03:05:26;101347.03;;;7.68;100.00
43125;BME280;49182;50.788;7.318;2024-03-22T03:10:29;101333.88;;;7.68;100.00
43125;BME280;49182;50.788;7.318;2024-03-22T03:15:29;101329.47;;;7.68;100.00
43125;BME280;49182;50.788;7.318;2024-03-22T03:20:30;101338.75;;;7.74;100.00
43125;BME280;49182;50.788;7.318;2024-03-22T03:25:32;101322.56;;;7.80;100.00
43125;BME280;49182;50.788;7.318;2024-03-22T03:30:33;101321.44;;;7.84;100.00
43125;BME280;49182;50.788;7.318;2024-03-22T03:35:34;101322.28;;;7.85;100.00
43125;BME280;49182;50.788;7.318;2024-03-22T03:40:36;101318.41;;;7.90;100.00
43125;BME280;49182;50.788;7.318;2024-03-22T03:45:37;101300.22;;;7.87;100.00
43125;BME280;49182;50.788;7.318;2024-03-22T03:50:37;101307.28;;;7.99;100.00
43125;BME280;49182;50.788;7.318;2024-03-22T03:55:39;101298.25;;;8.03;100.00
43125;BME280;49182;50.788;7.318;2024-03-22T04:00:40;101306.81;;;8.07;100.00
43125;BME280;49182;50.788;7.318;2024-03-22T04:05:41;101292.41;;;8.12;100.00
43125;BME280;49182;50.788;7.318;2024-03-22T04:10:51;101294.81;;;8.16;100.00
43125;BME280;49182;50.788;7.318;2024-03-22T04:15:52;101283.44;;;8.15;100.00
43125;BME280;49182;50.788;7.318;2024-03-22T04:20:53;101292.50;;;8.24;100.00
43125;BME280;49182;50.788;7.318;2024-03-22T04:25:57;101279.44;;;8.09;100.00
43125;BME280;49182;50.788;7.318;2024-03-22T04:30:59;101283.94;;;8.34;100.00
43125;BME280;49182;50.788;7.318;2024-03-22T04:36:00;101284.78;;;8.35;100.00
43125;BME280;49182;50.788;7.318;2024-03-22T04:41:03;101270.47;;;8.39;100.00
43125;BME280;49182;50.788;7.318;2024-03-22T04:46:04;101267.09;;;8.37;100.00
43125;BME280;49182;50.788;7.318;2024-03-22T04:51:05;101252.78;;;8.41;100.00
43125;BME280;49182;50.788;7.318;2024-03-22T04:56:07;101248.38;;;8.41;100.00
43125;BME280;49182;50.788;7.318;2024-03-22T05:01:08;101250.91;;;8.43;100.00
43125;BME280;49182;50.788;7.318;2024-03-22T05:06:08;101245.63;;;8.43;100.00
43125;BME280;49182;50.788;7.318;2024-03-22T05:11:10;101235.44;;;8.38;100.00
43125;BME280;49182;50.788;7.318;2024-03-22T05:16:12;101208.97;;;8.15;100.00
43125;BME280;49182;50.788;7.318;2024-03-22T05:21:12;101223.09;;;8.26;100.00
43125;BME280;49182;50.788;7.318;2024-03-22T05:26:14;101221.41;;;8.25;100.00
43125;BME280;49182;50.788;7.318;2024-03-22T05:31:15;101216.22;;;8.24;100.00
43125;BME280;49182;50.788;7.318;2024-03-22T05:36:16;101215.38;;;8.23;100.00
43125;BME280;49182;50.788;7.318;2024-03-22T05:41:18;101216.56;;;8.19;100.00
43125;BME280;49182;50.788;7.318;2024-03-22T05:46:19;101212.31;;;8.17;100.00
43125;BME280;49182;50.788;7.318;2024-03-22T05:51:20;101205.28;;;8.17;100.00
43125;BME280;49182;50.788;7.318;2024-03-22T05:56:22;101205.09;;;8.20;100.00
43125;BME280;49182;50.788;7.318;2024-03-22T06:01:23;101198.66;;;8.24;100.00
43125;BME280;49182;50.788;7.318;2024-03-22T06:06:25;101176.56;;;8.14;100.00
43125;BME280;49182;50.788;7.318;2024-03-22T06:11:27;101196.25;;;8.34;100.00
43125;BME280;49182;50.788;7.318;2024-03-22T06:16:28;101183.34;;;8.31;100.00
43125;BME280;49182;50.788;7.318;2024-03-22T06:21:29;101194.19;;;8.39;100.00
43125;BME280;49182;50.788;7.318;2024-03-22T06:26:31;101185.00;;;8.44;100.00
43125;BME280;49182;50.788;7.318;2024-03-22T06:31:32;101181.00;;;8.51;100.00
43125;BME280;49182;50.788;7.318;2024-03-22T06:36:32;101178.47;;;8.63;100.00
43125;BME280;49182;50.788;7.318;2024-03-22T06:41:35;101179.81;;;8.68;100.00
43125;BME280;49182;50.788;7.318;2024-03-22T06:46:36;101181.91;;;8.76;100.00
43125;BME280;49182;50.788;7.318;2024-03-22T06:51:36;101174.44;;;8.82;100.00
43125;BME280;49182;50.788;7.318;2024-03-22T06:56:39;101170.38;;;8.89;100.00
43125;BME280;49182;50.788;7.318;2024-03-22T07:01:39;101171.28;;;9.01;100.00
43125;BME280;49182;50.788;7.318;2024-03-22T07:06:40;101170.75;;;9.09;100.00
43125;BME280;49182;50.788;7.318;2024-03-22T07:11:42;101169.34;;;9.16;100.00
43125;BME280;49182;50.788;7.318;2024-03-22T07:16:43;101152.50;;;9.18;100.00
43125;BME280;49182;50.788;7.318;2024-03-22T07:21:44;101160.78;;;9.25;100.00
43125;BME280;49182;50.788;7.318;2024-03-22T07:26:46;101156.53;;;9.35;100.00
43125;BME280;49182;50.788;7.318;2024-03-22T07:31:47;101161.47;;;9.51;100.00
43125;BME280;49182;50.788;7.318;2024-03-22T07:36:48;101158.00;;;9.74;100.00
43125;BME280;49182;50.788;7.318;2024-03-22T07:41:50;101146.78;;;10.05;100.00
43125;BME280;49182;50.788;7.318;2024-03-22T07:46:51;101135.41;;;10.49;100.00
43125;BME280;49182;50.788;7.318;2024-03-22T07:51:52;101137.16;;;10.93;100.00
43125;BME280;49182;50.788;7.318;2024-03-22T07:56:54;101122.13;;;11.37;100.00
43125;BME280;49182;50.788;7.318;2024-03-22T08:01:54;101121.94;;;11.82;100.00
43125;BME280;49182;50.788;7.318;2024-03-22T08:06:55;101115.16;;;12.19;100.00
43125;BME280;49182;50.788;7.318;2024-03-22T08:11:57;101109.84;;;12.49;100.00
43125;BME280;49182;50.788;7.318;2024-03-22T08:16:58;101102.94;;;12.68;100.00
43125;BME280;49182;50.788;7.318;2024-03-22T08:21:59;101104.66;;;12.97;94.31
43125;BME280;49182;50.788;7.318;2024-03-22T08:27:01;101095.78;;;13.18;92.54
43125;BME280;49182;50.788;7.318;2024-03-22T08:32:02;101100.91;;;13.58;93.32
43125;BME280;49182;50.788;7.318;2024-03-22T08:37:03;101101.16;;;13.84;90.33
43125;BME280;49182;50.788;7.318;2024-03-22T08:42:05;101076.75;;;14.17;90.44
43125;BME280;49182;50.788;7.318;2024-03-22T08:47:06;101055.38;;;14.46;88.80
43125;BME280;49182;50.788;7.318;2024-03-22T08:52:07;101058.31;;;14.70;84.76
43125;BME280;49182;50.788;7.318;2024-03-22T08:57:09;101061.16;;;14.86;84.82
43125;BME280;49182;50.788;7.318;2024-03-22T09:02:09;101054.38;;;15.10;83.27
43125;BME280;49182;50.788;7.318;2024-03-22T09:07:10;101050.25;;;15.33;80.94
43125;BME280;49182;50.788;7.318;2024-03-22T09:12:12;101022.97;;;15.31;78.86
43125;BME280;49182;50.788;7.318;2024-03-22T09:17:13;101051.38;;;15.48;78.46
43125;BME280;49182;50.788;7.318;2024-03-22T09:22:14;101047.44;;;15.52;78.95
43125;BME280;49182;50.788;7.318;2024-03-22T09:27:16;101046.47;;;15.53;78.28
43125;BME280;49182;50.788;7.318;2024-03-22T09:32:17;101041.97;;;15.54;78.08
43125;BME280;49182;50.788;7.318;2024-03-22T09:37:18;101035.50;;;15.56;80.30
43125;BME280;49182;50.788;7.318;2024-03-22T09:42:22;101042.34;;;15.59;80.22
43125;BME280;49182;50.788;7.318;2024-03-22T09:47:24;101033.56;;;15.66;78.13
43125;BME280;49182;50.788;7.318;2024-03-22T09:52:25;101029.31;;;15.82;76.90
43125;BME280;49182;50.788;7.318;2024-03-22T09:57:27;101027.19;;;15.85;76.23
43125;BME280;49182;50.788;7.318;2024-03-22T10:02:29;100995.03;;;15.78;76.28
43125;BME280;49182;50.788;7.318;2024-03-22T10:07:30;101011.34;;;16.09;75.69
43125;BME280;49182;50.788;7.318;2024-03-22T10:12:32;101003.69;;;16.14;73.32
43125;BME280;49182;50.788;7.318;2024-03-22T10:17:34;100982.88;;;16.18;72.09
43125;BME280;49182;50.788;7.318;2024-03-22T10:22:35;100999.50;;;16.54;71.48
43125;BME280;49182;50.788;7.318;2024-03-22T10:27:39;100990.06;;;16.84;70.70
43125;BME280;49182;50.788;7.318;2024-03-22T10:32:41;100986.72;;;16.90;68.25
43125;BME280;49182;50.788;7.318;2024-03-22T10:37:42;100985.38;;;17.10;70.06
43125;BME280;49182;50.788;7.318;2024-03-22T10:42:45;100970.03;;;17.12;68.46
43125;BME280;49182;50.788;7.318;2024-03-22T10:47:46;100971.06;;;17.03;67.09
43125;BME280;49182;50.788;7.318;2024-03-22T10:52:51;100966.03;;;16.92;67.38
43125;BME280;49182;50.788;7.318;2024-03-22T10:57:56;100961.88;;;17.14;66.93
43125;BME280;49182;50.788;7.318;2024-03-22T11:02:57;100919.72;;;16.85;65.67
43125;BME280;49182;50.788;7.318;2024-03-22T11:07:59;100950.88;;;17.09;66.34
43125;BME280;49182;50.788;7.318;2024-03-22T11:13:02;100940.03;;;16.94;66.75
43125;BME280;49182;50.788;7.318;2024-03-22T11:18:04;100935.72;;;17.01;64.42
43125;BME280;49182;50.788;7.318;2024-03-22T11:23:05;100917.63;;;17.35;64.83
43125;BME280;49182;50.788;7.318;2024-03-22T11:28:08;100909.63;;;17.35;64.09
43125;BME280;49182;50.788;7.318;2024-03-22T11:33:10;100910.31;;;17.29;62.18
43125;BME280;49182;50.788;7.318;2024-03-22T11:38:10;100905.63;;;17.39;62.61
43125;BME280;49182;50.788;7.318;2024-03-22T11:43:13;100897.97;;;17.28;63.01
43125;BME280;49182;50.788;7.318;2024-03-22T11:48:15;100891.44;;;17.39;61.60
43125;BME280;49182;50.788;7.318;2024-03-22T11:53:16;100838.94;;;17.23;61.39
43125;BME280;49182;50.788;7.318;2024-03-22T11:58:19;100885.06;;;17.95;60.64
43125;BME280;49182;50.788;7.318;2024-03-22T12:03:20;100877.72;;;18.20;60.51
43125;BME280;49182;50.788;7.318;2024-03-22T12:08:20;100876.31;;;18.32;60.01
43125;BME280;49182;50.788;7.318;2024-03-22T12:13:23;100867.75;;;18.14;57.90
43125;BME280;49182;50.788;7.318;2024-03-22T12:18:24;100867.25;;;18.10;58.63
43125;BME280;49182;50.788;7.318;2024-03-22T12:23:24;100856.44;;;18.04;58.40
43125;BME280;49182;50.788;7.318;2024-03-22T12:28:27;100852.75;;;18.05;57.86
43125;BME280;49182;50.788;7.318;2024-03-22T12:33:27;100839.69;;;17.87;57.94
43125;BME280;49182;50.788;7.318;2024-03-22T12:38:28;100835.16;;;17.88;57.43
43125;BME280;49182;50.788;7.318;2024-03-22T12:43:30;100838.19;;;17.46;56.27
43125;BME280;49182;50.788;7.318;2024-03-22T12:48:31;100810.06;;;17.66;58.53
43125;BME280;49182;50.788;7.318;2024-03-22T12:53:32;100811.34;;;17.78;57.57
43125;BME280;49182;50.788;7.318;2024-03-22T12:58:34;100809.13;;;17.51;56.65
43125;BME280;49182;50.788;7.318;2024-03-22T13:03:36;100794.19;;;17.33;58.31
43125;BME280;49182;50.788;7.318;2024-03-22T13:08:36;100795.53;;;17.29;57.49
43125;BME280;49182;50.788;7.318;2024-03-22T13:13:38;100775.84;;;17.30;59.06
43125;BME280;49182;50.788;7.318;2024-03-22T13:18:39;100770.38;;;17.24;57.84
43125;BME280;49182;50.788;7.318;2024-03-22T13:23:40;100762.69;;;17.29;58.89
43125;BME280;49182;50.788;7.318;2024-03-22T13:28:42;100758.66;;;17.33;58.39
43125;BME280;49182;50.788;7.318;2024-03-22T13:33:43;100743.56;;;17.48;59.05
43125;BME280;49182;50.788;7.318;2024-03-22T13:38:45;100725.44;;;17.35;57.77
43125;BME280;49182;50.788;7.318;2024-03-22T13:43:47;100718.34;;;17.51;57.42
43125;BME280;49182;50.788;7.318;2024-03-22T13:48:48;100714.19;;;17.48;58.29
43125;BME280;49182;50.788;7.318;2024-03-22T13:53:48;100710.78;;;17.85;58.42
43125;BME280;49182;50.788;7.318;2024-03-22T13:58:50;100694.56;;;18.09;56.45
43125;BME280;49182;50.788;7.318;2024-03-22T14:03:51;100685.13;;;18.36;55.94
43125;BME280;49182;50.788;7.318;2024-03-22T14:08:52;100688.47;;;18.82;57.29
43125;BME280;49182;50.788;7.318;2024-03-22T14:13:54;100670.09;;;18.94;53.74
43125;BME280;49182;50.788;7.318;2024-03-22T14:18:55;100672.88;;;19.01;54.31
43125;BME280;49182;50.788;7.318;2024-03-22T14:23:56;100667.06;;;18.82;51.51
43125;BME280;49182;50.788;7.318;2024-03-22T14:28:58;100652.78;;;18.75;53.99
43125;BME280;49182;50.788;7.318;2024-03-22T14:33:59;100648.53;;;18.81;53.81
43125;BME280;49182;50.788;7.318;2024-03-22T14:38:59;100644.19;;;18.94;54.28
43125;BME280;49182;50.788;7.318;2024-03-22T14:44:02;100638.06;;;19.01;52.31
43125;BME280;49182;50.788;7.318;2024-03-22T14:49:02;100634.72;;;19.34;52.41
43125;BME280;49182;50.788;7.318;2024-03-22T14:54:03;100627.41;;;19.64;50.00
43125;BME280;49182;50.788;7.318;2024-03-22T14:59:05;100613.81;;;19.23;48.59
43125;BME280;49182;50.788;7.318;2024-03-22T15:04:06;100619.34;;;19.22;48.07
43125;BME280;49182;50.788;7.318;2024-03-22T15:09:07;100604.84;;;19.31;49.74
43125;BME280;49182;50.788;7.318;2024-03-22T15:14:09;100598.41;;;19.25;49.12
43125;BME280;49182;50.788;7.318;2024-03-22T15:19:10;100592.84;;;18.70;49.79
43125;BME280;49182;50.788;7.318;2024-03-22T15:24:10;100588.41;;;18.62;50.35
43125;BME280;49182;50.788;7.318;2024-03-22T15:29:12;100579.16;;;18.79;49.55
43125;BME280;49182;50.788;7.318;2024-03-22T15:34:13;100577.81;;;18.69;48.89
43125;BME280;49182;50.788;7.318;2024-03-22T15:39:15;100566.63;;;18.65;50.46
43125;BME280;49182;50.788;7.318;2024-03-22T15:44:17;100563.31;;;18.48;49.66
43125;BME280;49182;50.788;7.318;2024-03-22T15:49:19;100554.84;;;18.30;50.17
43125;BME280;49182;50.788;7.318;2024-03-22T15:54:20;100546.72;;;18.53;50.45
43125;BME280;49182;50.788;7.318;2024-03-22T15:59:22;100545.63;;;18.83;49.37
43125;BME280;49182;50.788;7.318;2024-03-22T16:04:23;100545.84;;;18.82;49.25
43125;BME280;49182;50.788;7.318;2024-03-22T16:09:24;100537.66;;;18.54;48.13
43125;BME280;49182;50.788;7.318;2024-03-22T16:14:26;100534.59;;;18.06;47.04
43125;BME280;49182;50.788;7.318;2024-03-22T16:19:27;100539.75;;;17.93;49.67
43125;BME280;49182;50.788;7.318;2024-03-22T16:24:27;100530.88;;;17.40;49.50
43125;BME280;49182;50.788;7.318;2024-03-22T16:29:29;100525.19;;;17.44;52.75
43125;BME280;49182;50.788;7.318;2024-03-22T16:34:30;100514.13;;;17.32;51.43
43125;BME280;49182;50.788;7.318;2024-03-22T16:39:31;100510.81;;;17.07;54.05
43125;BME280;49182;50.788;7.318;2024-03-22T16:44:33;100516.72;;;17.40;53.89
43125;BME280;49182;50.788;7.318;2024-03-22T16:49:34;100494.72;;;17.38;52.35
43125;BME280;49182;50.788;7.318;2024-03-22T16:54:35;100513.72;;;17.58;53.96
43125;BME280;49182;50.788;7.318;2024-03-22T16:59:37;100504.00;;;17.65;54.31
43125;BME280;49182;50.788;7.318;2024-03-22T17:04:38;100523.56;;;17.57;58.18
43125;BME280;49182;50.788;7.318;2024-03-22T17:09:38;100512.34;;;17.24;58.85
43125;BME280;49182;50.788;7.318;2024-03-22T17:14:40;100513.31;;;16.86;60.94
43125;BME280;49182;50.788;7.318;2024-03-22T17:19:41;100511.91;;;16.36;63.31
43125;BME280;49182;50.788;7.318;2024-03-22T17:24:42;100515.44;;;15.90;65.25
43125;BME280;49182;50.788;7.318;2024-03-22T17:29:44;100508.16;;;15.43;66.90
43125;BME280;49182;50.788;7.318;2024-03-22T17:34:45;100517.47;;;15.07;69.09
43125;BME280;49182;50.788;7.318;2024-03-22T17:39:46;100516.13;;;14.78;69.22
43125;BME280;49182;50.788;7.318;2024-03-22T17:44:49;100507.63;;;14.58;71.44
43125;BME280;49182;50.788;7.318;2024-03-22T17:49:49;100513.13;;;14.23;72.13
43125;BME280;49182;50.788;7.318;2024-03-22T17:54:50;100520.09;;;13.90;75.84
43125;BME280;49182;50.788;7.318;2024-03-22T17:59:54;100526.09;;;13.66;76.00
43125;BME280;49182;50.788;7.318;2024-03-22T18:04:55;100533.34;;;13.56;75.88
43125;BME280;49182;50.788;7.318;2024-03-22T18:09:56;100528.81;;;13.49;77.50
43125;BME280;49182;50.788;7.318;2024-03-22T18:14:58;100533.81;;;13.34;79.76
43125;BME280;49182;50.788;7.318;2024-03-22T18:19:59;100541.50;;;13.19;82.54
43125;BME280;49182;50.788;7.318;2024-03-22T18:24:59;100549.75;;;13.16;82.65
43125;BME280;49182;50.788;7.318;2024-03-22T18:30:02;100549.66;;;13.08;84.04
43125;BME280;49182;50.788;7.318;2024-03-22T18:35:03;100545.16;;;13.09;85.27
43125;BME280;49182;50.788;7.318;2024-03-22T18:40:05;100554.34;;;12.96;85.48
43125;BME280;49182;50.788;7.318;2024-03-22T18:45:08;100552.38;;;12.81;88.67
43125;BME280;49182;50.788;7.318;2024-03-22T18:50:10;100542.00;;;12.70;89.68
43125;BME280;49182;50.788;7.318;2024-03-22T18:55:11;100549.84;;;12.62;91.76
43125;BME280;49182;50.788;7.318;2024-03-22T19:00:13;100551.19;;;12.66;90.32
43125;BME280;49182;50.788;7.318;2024-03-22T19:05:14;100548.16;;;12.61;90.52
43125;BME280;49182;50.788;7.318;2024-03-22T19:10:15;100539.25;;;12.62;89.77
43125;BME280;49182;50.788;7.318;2024-03-22T19:15:17;100530.94;;;12.56;91.66
43125;BME280;49182;50.788;7.318;2024-03-22T19:20:20;100517.97;;;12.53;89.69
43125;BME280;49182;50.788;7.318;2024-03-22T19:25:21;100525.31;;;12.60;90.15
43125;BME280;49182;50.788;7.318;2024-03-22T19:30:24;100514.06;;;12.57;90.18
43125;BME280;49182;50.788;7.318;2024-03-22T19:35:25;100504.47;;;12.47;91.53
43125;BME280;49182;50.788;7.318;2024-03-22T19:40:26;100509.13;;;12.45;90.96
43125;BME280;49182;50.788;7.318;2024-03-22T19:45:28;100504.09;;;12.42;90.93
43125;BME280;49182;50.788;7.318;2024-03-22T19:50:29;100503.25;;;12.41;89.97
43125;BME280;49182;50.788;7.318;2024-03-22T19:55:29;100503.25;;;12.41;89.51
43125;BME280;49182;50.788;7.318;2024-03-22T20:00:32;100511.56;;;12.29;90.80
43125;BME280;49182;50.788;7.318;2024-03-22T20:05:32;100497.94;;;12.24;91.23
43125;BME280;49182;50.788;7.318;2024-03-22T20:10:33;100480.38;;;12.23;90.50
43125;BME280;49182;50.788;7.318;2024-03-22T20:15:35;100480.25;;;12.24;90.66
43125;BME280;49182;50.788;7.318;2024-03-22T20:20:36;100474.78;;;12.08;91.11
43125;BME280;49182;50.788;7.318;2024-03-22T20:25:38;100478.41;;;12.07;92.48
43125;BME280;49182;50.788;7.318;2024-03-22T20:30:40;100476.19;;;12.02;93.04
43125;BME280;49182;50.788;7.318;2024-03-22T20:35:41;100468.84;;;11.96;93.35
